This is the latest recevied weather packets stored in our database for station/object NF3Q. If no packets are shown the sender has not sent any weather packets the latest 10 day(s).
| Time | Temp. | Humidity | Pressure | Rain* | Wind** | Luminosity | Snow |
|---|---|---|---|---|---|---|---|
| 1777020333 | 13.89° C | 86% | 1011.1 hPa | 0 mm | - | - | - |
| 1777018810 | 13.89° C | 87% | 1011.2 hPa | 0 mm | - | - | - |
| 1777018522 | 13.89° C | 87% | 1011.2 hPa | 0 mm | - | - | - |
| 1777017009 | 13.89° C | 86% | 1011.3 hPa | 0 mm | - | - | - |
| 1777016404 | 13.89° C | 86% | 1011.3 hPa | 0 mm | - | - | - |
| 1777013407 | 14.44° C | 85% | 1011.6 hPa | 0 mm | - | - | - |
| 1777012808 | 14.44° C | 84% | 1011.4 hPa | 0 mm | - | - | - |
| 1777011904 | 14.44° C | 84% | 1011.4 hPa | 0 mm | - | - | - |
| 1777011603 | 14.44° C | 84% | 1011.4 hPa | 0 mm | - | - | - |
| 1777006832 | 15.56° C | 81% | 1011.5 hPa | 0 mm | - | - | - |
| 1777005914 | 16.11° C | 80% | 1011.6 hPa | 0 mm | - | - | - |
| 1777003806 | 16.11° C | 79% | 1011.6 hPa | 0 mm | - | - | - |
| 1777003215 | 16.67° C | 78% | 1011.6 hPa | 0 mm | - | - | - |
| 1777002906 | 16.67° C | 78% | 1011.6 hPa | 0 mm | - | - | - |
| 1777002005 | 17.22° C | 76% | 1011.7 hPa | 0 mm | - | - | - |
| 1777001103 | 17.22° C | 75% | 1011.7 hPa | 0 mm | - | - | - |
| 1776997816 | 19.44° C | 68% | 1012.2 hPa | 0 mm | - | - | - |
| 1776996014 | 20.56° C | 64% | 1012.1 hPa | 0 mm | - | - | - |
| 1776993610 | 22.22° C | 55% | 1011.9 hPa | 0 mm | - | - | - |
| 1776987018 | 25.56° C | 46% | 1011.3 hPa | 0 mm | - | - | - |
| 1776986706 | 25.56° C | 46% | 1011.4 hPa | 0 mm | - | - | - |
| 1776986127 | 26.67° C | 43% | 1011.2 hPa | 0 mm | - | - | - |
| 1776985807 | 26.67° C | 42% | 1011.1 hPa | 0 mm | - | - | - |
| 1776984317 | 27.78° C | 41% | 1011.2 hPa | 0 mm | - | - | - |
| 1776983707 | 27.78° C | 41% | 1011.2 hPa | 0 mm | - | - | - |
* Rain latest hour (hover to see other rain measurements)
** Current wind speed in m/s (hover to see current wind gust speed)